Time;durP1;ratioP1;P1;durP2;ratioP2;P2;SDS_P1;SDS_P2;PMS_P1;PMS_P2;Temp;Humidity;BMP_temperature;BMP_pressure;BME280_temperature;BME280_humidity;BME280_pressure;Samples;Min_cycle;Max_cycle;Signal;HPM_P1;HPM_P2
2022/05/15 00:00:39;;;;;;;6.82;3.72;;;21.40;99.90;;;;;;5022204;28;20488;-68
2022/05/15 00:03:16;;;;;;;5.78;3.92;;;21.60;99.90;;;;;;5016747;28;20041;-68
2022/05/15 00:05:44;;;;;;;6.13;4.45;;;21.80;99.90;;;;;;5015380;28;20030;-68
2022/05/15 00:08:12;;;;;;;9.65;4.43;;;21.90;99.90;;;;;;5030154;28;20079;-68
2022/05/15 00:10:43;;;;;;;5.10;4.30;;;21.60;99.90;;;;;;5025345;28;20022;-68
2022/05/15 00:13:11;;;;;;;6.28;4.15;;;21.60;99.90;;;;;;5031341;28;20043;-69
2022/05/15 00:15:40;;;;;;;6.43;4.32;;;21.70;99.90;;;;;;5023404;28;20088;-69
2022/05/15 00:18:08;;;;;;;7.18;4.20;;;21.50;99.90;;;;;;5016627;28;20105;-68
2022/05/15 00:20:37;;;;;;;5.93;4.25;;;21.30;99.90;;;;;;5016863;28;20441;-68
2022/05/15 00:23:04;;;;;;;6.80;4.18;;;21.50;99.90;;;;;;5018052;28;20026;-68
2022/05/15 00:25:31;;;;;;;6.18;4.47;;;21.70;99.90;;;;;;5034154;28;20449;-69
2022/05/15 00:27:59;;;;;;;6.95;4.65;;;21.90;99.90;;;;;;5029025;28;20108;-68
2022/05/15 00:30:27;;;;;;;6.50;4.45;;;21.70;99.90;;;;;;5023583;28;20030;-68
2022/05/15 00:32:55;;;;;;;7.95;5.45;;;21.60;99.90;;;;;;5030008;28;20124;-68
2022/05/15 00:35:22;;;;;;;6.88;4.85;;;21.60;99.90;;;;;;5026383;28;20112;-69
2022/05/15 00:37:50;;;;;;;5.45;3.83;;;21.70;99.90;;;;;;5035553;28;20025;-69
2022/05/15 00:40:20;;;;;;;6.32;4.45;;;21.80;99.90;;;;;;5033435;28;20079;-69
2022/05/15 00:42:48;;;;;;;11.32;4.65;;;21.90;99.90;;;;;;5035292;28;20458;-69
2022/05/15 00:45:18;;;;;;;9.32;4.38;;;21.80;99.90;;;;;;5023158;28;20033;-68
2022/05/15 00:47:45;;;;;;;7.97;3.78;;;21.90;99.90;;;;;;5016126;28;20037;-68
2022/05/15 00:50:17;;;;;;;6.00;4.30;;;22.10;99.90;;;;;;5023660;28;20028;-69
2022/05/15 00:52:48;;;;;;;5.47;3.70;;;22.10;99.90;;;;;;5016660;28;20115;-68
2022/05/15 00:55:39;;;;;;;7.00;4.05;;;22.20;99.90;;;;;;5023167;28;20411;-69
2022/05/15 00:58:17;;;;;;;6.88;3.65;;;22.40;99.90;;;;;;5034668;28;20032;-69
2022/05/15 01:00:44;;;;;;;6.80;3.72;;;22.50;99.90;;;;;;5022122;28;20030;-69
2022/05/15 01:03:18;;;;;;;5.88;3.50;;;22.50;99.90;;;;;;5015898;28;20493;-69
2022/05/15 01:05:49;;;;;;;4.93;3.38;;;22.60;99.90;;;;;;5028781;28;20066;-69
2022/05/15 01:08:16;;;;;;;4.00;3.13;;;22.60;99.90;;;;;;5028378;28;20021;-69
2022/05/15 01:10:48;;;;;;;4.22;3.28;;;22.60;99.90;;;;;;5021633;28;20033;-68
2022/05/15 01:13:18;;;;;;;5.22;3.33;;;22.60;99.90;;;;;;5015659;28;20037;-69
2022/05/15 01:15:47;;;;;;;6.22;3.60;;;22.50;99.90;;;;;;5016897;28;20029;-69
2022/05/15 01:18:21;;;;;;;3.53;3.00;;;22.50;99.90;;;;;;5015018;28;20026;-69
2022/05/15 01:20:52;;;;;;;8.93;2.92;;;22.70;99.90;;;;;;5015953;28;20026;-69
2022/05/15 01:23:20;;;;;;;6.53;3.42;;;22.70;99.90;;;;;;5029613;28;20034;-69
2022/05/15 01:25:47;;;;;;;5.93;4.00;;;22.70;99.90;;;;;;5015817;28;20072;-69
2022/05/15 01:28:23;;;;;;;8.23;2.95;;;22.80;99.90;;;;;;5015007;28;20026;-69
2022/05/15 01:30:54;;;;;;;4.20;3.42;;;22.80;99.90;;;;;;5015336;28;20034;-69
2022/05/15 01:33:22;;;;;;;4.60;2.97;;;22.70;99.90;;;;;;5027720;28;20022;-69
2022/05/15 01:35:49;;;;;;;5.20;3.38;;;22.50;99.90;;;;;;5017305;28;20063;-68
2022/05/15 01:38:18;;;;;;;5.00;2.80;;;22.40;99.90;;;;;;5032249;28;20112;-68
2022/05/15 01:40:48;;;;;;;5.47;2.55;;;22.40;99.90;;;;;;5020960;28;20548;-68
2022/05/15 01:43:16;;;;;;;4.88;2.42;;;22.40;99.90;;;;;;5030310;28;20402;-68
2022/05/15 01:45:43;;;;;;;3.03;1.67;;;22.50;99.90;;;;;;5019575;28;20025;-68
2022/05/15 01:48:11;;;;;;;2.80;1.95;;;22.70;99.90;;;;;;5022882;28;20037;-69
2022/05/15 01:50:38;;;;;;;2.92;1.40;;;23.20;99.90;;;;;;5023067;28;20026;-68
2022/05/15 01:53:05;;;;;;;4.55;2.03;;;23.60;99.90;;;;;;5024180;28;20049;-69
2022/05/15 01:55:33;;;;;;;3.72;2.33;;;23.80;99.90;;;;;;5022847;28;20390;-69
2022/05/15 01:58:00;;;;;;;5.35;2.47;;;24.00;99.90;;;;;;5031706;28;20033;-69
2022/05/15 02:00:28;;;;;;;3.55;2.63;;;24.10;99.90;;;;;;5024983;28;20033;-69
2022/05/15 02:02:55;;;;;;;3.13;2.35;;;23.80;99.90;;;;;;5023421;28;20041;-69
2022/05/15 02:05:24;;;;;;;4.78;2.40;;;23.90;99.90;;;;;;5022763;28;20160;-70
2022/05/15 02:07:51;;;;;;;4.18;2.83;;;24.10;99.90;;;;;;5026229;28;20049;-69
2022/05/15 02:10:19;;;;;;;5.07;2.72;;;23.80;99.90;;;;;;5019773;28;20510;-69
2022/05/15 02:12:46;;;;;;;4.93;2.47;;;23.60;99.90;;;;;;5026528;28;20034;-70
2022/05/15 02:15:15;;;;;;;5.88;2.35;;;23.90;99.90;;;;;;5026635;28;20071;-69
2022/05/15 02:17:42;;;;;;;3.15;1.83;;;24.80;99.90;;;;;;5027199;28;20026;-69
2022/05/15 02:20:12;;;;;;;4.00;1.80;;;25.40;99.90;;;;;;5015054;28;20148;-69
2022/05/15 02:22:40;;;;;;;3.55;2.03;;;25.90;99.90;;;;;;5037669;28;20042;-69
2022/05/15 02:25:10;;;;;;;4.95;1.83;;;26.10;99.90;;;;;;5015283;28;20099;-69
2022/05/15 02:27:37;;;;;;;4.32;2.17;;;25.90;99.90;;;;;;5014358;28;20026;-69
2022/05/15 02:30:07;;;;;;;4.50;1.90;;;24.90;99.90;;;;;;5014791;28;20160;-69
2022/05/15 02:32:34;;;;;;;2.80;1.90;;;24.20;99.90;;;;;;5014932;28;20022;-69
2022/05/15 02:35:02;;;;;;;3.25;1.33;;;24.00;99.90;;;;;;5014138;28;20738;-68
2022/05/15 02:37:29;;;;;;;2.47;1.90;;;24.20;99.90;;;;;;5014928;28;20026;-69
2022/05/15 02:39:56;;;;;;;4.32;1.85;;;24.60;99.90;;;;;;5017274;28;20040;-69
2022/05/15 02:42:24;;;;;;;4.80;1.92;;;24.90;99.90;;;;;;5014765;28;20029;-68
2022/05/15 02:44:52;;;;;;;1.95;1.08;;;25.10;99.90;;;;;;5019935;28;20486;-69
2022/05/15 02:47:19;;;;;;;1.75;0.70;;;24.80;99.90;;;;;;5033574;28;20112;-69
2022/05/15 02:52:31;;;;;;;4.65;1.60;;;25.10;99.90;;;;;;5029568;28;20056;-69
2022/05/15 02:54:59;;;;;;;2.67;1.30;;;24.80;99.90;;;;;;5026614;28;20035;-69
2022/05/15 02:57:26;;;;;;;3.67;0.85;;;24.50;99.90;;;;;;5015434;28;20037;-69
2022/05/15 02:59:53;;;;;;;1.75;0.80;;;24.10;99.90;;;;;;5014580;28;20083;-69
2022/05/15 03:02:21;;;;;;;2.95;0.95;;;24.10;99.90;;;;;;5027243;28;20076;-69
2022/05/15 03:04:49;;;;;;;6.50;1.50;;;24.10;99.90;;;;;;5019464;28;20030;-69
2022/05/15 03:07:18;;;;;;;1.88;0.60;;;24.30;99.90;;;;;;5027003;28;20029;-69
2022/05/15 03:09:47;;;;;;;1.67;0.40;;;24.10;99.90;;;;;;5022482;28;20499;-69
2022/05/15 03:12:14;;;;;;;0.98;0.57;;;24.10;99.90;;;;;;5015920;28;20024;-69
2022/05/15 03:14:42;;;;;;;3.10;1.15;;;24.10;99.90;;;;;;5019823;28;20044;-70
2022/05/15 03:17:09;;;;;;;0.63;0.28;;;24.10;99.90;;;;;;5015043;28;20032;-70
2022/05/15 03:19:36;;;;;;;1.05;0.32;;;24.10;99.90;;;;;;5028763;28;20133;-70
2022/05/15 03:22:04;;;;;;;0.98;0.50;;;24.10;99.90;;;;;;5026404;28;20028;-70
2022/05/15 03:24:31;;;;;;;0.60;0.30;;;24.00;99.90;;;;;;5021655;28;20033;-70
2022/05/15 03:26:58;;;;;;;0.95;0.38;;;23.70;99.90;;;;;;5014900;28;20552;-70
2022/05/15 03:29:26;;;;;;;1.92;0.38;;;23.80;99.90;;;;;;5020642;28;20048;-70
2022/05/15 03:31:53;;;;;;;1.40;0.40;;;23.90;99.90;;;;;;5030876;28;20064;-70
2022/05/15 03:34:20;;;;;;;3.17;0.47;;;23.80;99.90;;;;;;5018835;28;20044;-70
2022/05/15 03:36:51;;;;;;;0.95;0.60;;;23.90;99.90;;;;;;5030516;28;20021;-70
2022/05/15 03:39:21;;;;;;;1.30;0.40;;;23.90;99.90;;;;;;5030443;28;20071;-70
2022/05/15 03:41:50;;;;;;;2.50;1.00;;;23.80;99.90;;;;;;5031149;28;20474;-70
2022/05/15 03:44:17;;;;;;;2.97;0.70;;;23.80;99.90;;;;;;5026919;28;20034;-69
2022/05/15 03:46:45;;;;;;;1.48;0.40;;;23.80;99.90;;;;;;5028256;28;20045;-70
2022/05/15 03:49:13;;;;;;;1.33;0.40;;;23.70;99.90;;;;;;5014516;28;20045;-70
2022/05/15 03:51:41;;;;;;;1.58;0.70;;;23.70;99.90;;;;;;5015348;28;20050;-69
2022/05/15 03:54:09;;;;;;;2.17;0.80;;;23.60;99.90;;;;;;5016470;28;20565;-69
2022/05/15 03:56:52;;;;;;;2.78;0.50;;;23.60;99.90;;;;;;5016387;28;20037;-70
2022/05/15 03:59:37;;;;;;;1.95;0.82;;;23.60;99.90;;;;;;5021761;28;20038;-70
2022/05/15 04:02:06;;;;;;;5.07;0.70;;;23.70;99.90;;;;;;5013465;28;20112;-70
2022/05/15 04:04:34;;;;;;;1.33;0.70;;;23.70;99.90;;;;;;5023696;28;20029;-70
2022/05/15 04:07:02;;;;;;;1.80;0.75;;;23.60;99.90;;;;;;5019609;28;20071;-69
2022/05/15 04:09:32;;;;;;;2.00;0.90;;;23.70;99.90;;;;;;5018173;28;20029;-71
2022/05/15 04:11:59;;;;;;;1.65;0.70;;;23.70;99.90;;;;;;5022081;28;20021;-70
2022/05/15 04:14:27;;;;;;;1.88;1.00;;;23.70;99.90;;;;;;5027403;28;20034;-70
2022/05/15 04:16:55;;;;;;;4.45;1.20;;;23.70;99.90;;;;;;5020445;28;20057;-70
2022/05/15 04:19:22;;;;;;;3.95;1.48;;;23.70;99.90;;;;;;5030423;28;20036;-70
2022/05/15 04:21:49;;;;;;;3.85;1.05;;;23.70;99.90;;;;;;5031678;28;20029;-70
2022/05/15 04:24:18;;;;;;;1.90;1.20;;;23.70;99.90;;;;;;5028079;28;20042;-70
2022/05/15 04:26:47;;;;;;;2.08;0.73;;;23.70;99.90;;;;;;5017592;28;20116;-69
2022/05/15 04:29:14;;;;;;;1.90;0.80;;;23.80;99.90;;;;;;5027185;28;20041;-70
2022/05/15 04:31:42;;;;;;;2.45;1.08;;;23.80;99.90;;;;;;5014932;28;20054;-69
2022/05/15 04:34:09;;;;;;;3.15;1.40;;;23.90;99.90;;;;;;5027798;28;20025;-69
2022/05/15 04:36:37;;;;;;;3.42;2.10;;;23.80;99.90;;;;;;5022626;28;20505;-69
2022/05/15 04:39:06;;;;;;;5.30;1.85;;;23.70;99.90;;;;;;5021635;28;20105;-69
2022/05/15 04:41:33;;;;;;;5.55;2.10;;;23.60;99.90;;;;;;5016766;28;20040;-69
2022/05/15 04:44:00;;;;;;;5.13;1.98;;;23.60;99.90;;;;;;5021075;28;20053;-68
2022/05/15 04:46:29;;;;;;;4.60;1.75;;;23.70;99.90;;;;;;5021948;28;20033;-69
2022/05/15 04:48:57;;;;;;;4.97;2.20;;;23.70;99.90;;;;;;5015478;28;20017;-69
2022/05/15 04:51:24;;;;;;;3.50;1.60;;;23.50;99.90;;;;;;5027882;28;20079;-70
2022/05/15 04:53:53;;;;;;;13.60;3.90;;;23.40;99.90;;;;;;5015364;28;20049;-69
2022/05/15 04:56:22;;;;;;;5.25;2.47;;;23.30;99.90;;;;;;5030099;28;20034;-69
2022/05/15 04:58:49;;;;;;;6.45;2.58;;;23.20;99.90;;;;;;5028104;28;20051;-70
2022/05/15 05:01:18;;;;;;;6.70;2.50;;;23.10;99.90;;;;;;5030871;28;20124;-69
2022/05/15 05:03:45;;;;;;;4.63;2.47;;;23.00;99.90;;;;;;5026838;28;20490;-69
2022/05/15 05:06:13;;;;;;;9.63;2.83;;;22.90;99.90;;;;;;5029244;28;20033;-69
2022/05/15 05:08:40;;;;;;;9.30;3.08;;;22.80;99.90;;;;;;5034116;28;20057;-69
2022/05/15 05:11:07;;;;;;;7.63;2.90;;;22.60;99.90;;;;;;5020540;28;20029;-69
2022/05/15 05:13:35;;;;;;;9.25;2.80;;;22.60;99.90;;;;;;5029486;28;20022;-70
2022/05/15 05:16:02;;;;;;;6.55;2.50;;;22.50;99.90;;;;;;5027891;28;20116;-70
2022/05/15 05:18:29;;;;;;;11.27;2.90;;;22.40;99.90;;;;;;5023589;28;20501;-70
2022/05/15 05:20:57;;;;;;;10.77;2.90;;;22.30;99.90;;;;;;5021769;28;20551;-69
2022/05/15 05:23:24;;;;;;;9.50;2.40;;;22.30;99.90;;;;;;5022957;28;20091;-69
2022/05/15 05:25:52;;;;;;;9.63;3.13;;;22.10;99.90;;;;;;5022036;28;20057;-69
2022/05/15 05:28:20;;;;;;;6.93;2.28;;;22.10;99.90;;;;;;5022861;28;20037;-69
2022/05/15 05:30:47;;;;;;;9.23;2.88;;;22.10;99.90;;;;;;5029344;28;20100;-69
2022/05/15 05:33:14;;;;;;;10.10;2.80;;;22.00;99.90;;;;;;5029598;28;20105;-69
2022/05/15 05:35:43;;;;;;;5.35;2.88;;;21.90;99.90;;;;;;5021446;28;20053;-69
2022/05/15 05:38:10;;;;;;;6.97;3.38;;;21.80;99.90;;;;;;5016250;28;20390;-69
2022/05/15 05:40:38;;;;;;;15.20;3.63;;;21.80;99.90;;;;;;5020122;28;20071;-69
2022/05/15 05:43:06;;;;;;;11.80;2.75;;;21.80;99.90;;;;;;5035721;28;20447;-69
2022/05/15 05:45:33;;;;;;;9.18;2.75;;;21.80;99.90;;;;;;5031950;28;20134;-69
2022/05/15 05:48:00;;;;;;;7.85;3.00;;;21.90;99.90;;;;;;5027961;28;20374;-69
2022/05/15 05:50:28;;;;;;;11.88;3.03;;;21.90;99.90;;;;;;5027221;28;20385;-69
2022/05/15 05:52:57;;;;;;;8.55;2.85;;;21.90;99.90;;;;;;5019044;28;20045;-69
2022/05/15 05:55:26;;;;;;;10.40;3.33;;;21.80;99.90;;;;;;5025789;28;20052;-69
2022/05/15 05:57:54;;;;;;;12.18;3.20;;;21.80;99.90;;;;;;5021327;28;20389;-69
2022/05/15 06:00:41;;;;;;;10.18;3.40;;;21.70;99.90;;;;;;5012543;28;20532;-70
2022/05/15 06:05:55;;;;;;;7.32;3.20;;;21.70;99.90;;;;;;5033225;28;20060;-71
2022/05/15 06:08:27;;;;;;;8.05;2.97;;;21.60;99.90;;;;;;5026806;28;20033;-71
2022/05/15 06:10:55;;;;;;;8.52;3.30;;;21.60;99.90;;;;;;5020143;28;20025;-70
2022/05/15 06:13:23;;;;;;;5.95;3.20;;;21.70;99.90;;;;;;5014490;28;20037;-70
2022/05/15 06:15:50;;;;;;;8.07;3.08;;;21.60;99.90;;;;;;5014491;28;20530;-70
2022/05/15 06:18:18;;;;;;;8.73;3.00;;;21.60;99.90;;;;;;5030063;28;20029;-70
2022/05/15 06:20:45;;;;;;;8.73;4.03;;;21.60;99.90;;;;;;5029769;28;20112;-70
2022/05/15 06:23:12;;;;;;;5.55;2.83;;;21.60;99.90;;;;;;5033466;28;20120;-71
2022/05/15 06:25:40;;;;;;;10.93;3.55;;;21.50;99.90;;;;;;5026816;28;20094;-70
2022/05/15 06:28:07;;;;;;;6.07;3.17;;;21.50;99.90;;;;;;5031713;28;20060;-71
2022/05/15 06:30:36;;;;;;;7.97;3.45;;;21.40;99.90;;;;;;5021400;28;20041;-70
2022/05/15 06:33:05;;;;;;;9.70;3.95;;;21.40;99.90;;;;;;5014625;28;20113;-70
2022/05/15 06:35:33;;;;;;;7.82;3.72;;;21.30;99.90;;;;;;5024761;28;20034;-70
2022/05/15 06:38:07;;;;;;;7.50;3.45;;;21.20;99.90;;;;;;5034272;28;20429;-70
2022/05/15 06:40:35;;;;;;;12.27;3.47;;;21.10;99.90;;;;;;5021120;28;20034;-70
2022/05/15 06:43:02;;;;;;;6.40;3.00;;;21.10;99.90;;;;;;5017488;28;20371;-69
2022/05/15 06:45:30;;;;;;;10.15;3.53;;;21.10;99.90;;;;;;5014308;28;20038;-70
2022/05/15 06:47:57;;;;;;;7.28;2.60;;;21.10;99.90;;;;;;5014072;28;20053;-70
2022/05/15 06:50:25;;;;;;;13.32;3.15;;;21.10;99.90;;;;;;5023979;28;20116;-70
2022/05/15 06:52:52;;;;;;;8.05;2.78;;;21.00;99.90;;;;;;5032558;28;20076;-70
2022/05/15 06:55:21;;;;;;;6.53;3.08;;;21.00;99.90;;;;;;5023471;28;20029;-70
2022/05/15 06:57:50;;;;;;;8.68;3.00;;;21.00;99.90;;;;;;5013612;28;20022;-70
2022/05/15 07:00:28;;;;;;;10.18;3.55;;;21.00;99.90;;;;;;5022041;28;20056;-70
2022/05/15 07:02:55;;;;;;;8.20;2.65;;;21.00;99.90;;;;;;5021085;28;20125;-71
2022/05/15 07:05:27;;;;;;;7.72;2.70;;;21.00;99.90;;;;;;5023425;28;20512;-70
2022/05/15 07:07:55;;;;;;;5.28;2.55;;;20.90;99.90;;;;;;5024228;28;20051;-70
2022/05/15 07:10:23;;;;;;;3.83;2.45;;;20.90;99.90;;;;;;5015763;28;20022;-70
2022/05/15 07:12:51;;;;;;;8.65;2.47;;;20.90;99.90;;;;;;5014427;28;20022;-70
2022/05/15 07:15:18;;;;;;;6.10;2.33;;;20.90;99.90;;;;;;5022049;28;20072;-70
2022/05/15 07:17:45;;;;;;;6.30;2.30;;;20.90;99.90;;;;;;5018876;28;20057;-70
2022/05/15 07:20:13;;;;;;;6.07;2.47;;;20.90;99.90;;;;;;5024680;28;20052;-70
2022/05/15 07:22:40;;;;;;;8.85;2.65;;;20.90;99.90;;;;;;5028432;28;20505;-70
2022/05/15 07:25:08;;;;;;;8.27;3.03;;;20.90;99.90;;;;;;5022280;28;20041;-70
2022/05/15 07:27:35;;;;;;;6.82;3.20;;;20.90;99.90;;;;;;5025985;28;20451;-70
2022/05/15 07:30:03;;;;;;;7.18;4.88;;;20.80;99.90;;;;;;5019715;28;20025;-70
2022/05/15 07:32:30;;;;;;;14.43;8.52;;;20.80;99.90;;;;;;5024022;28;20137;-71
2022/05/15 07:34:57;;;;;;;14.02;7.47;;;20.70;99.90;;;;;;5021863;28;20018;-69
2022/05/15 07:37:24;;;;;;;11.80;8.45;;;20.80;99.90;;;;;;5013623;28;20045;-69
2022/05/15 07:39:52;;;;;;;15.95;7.07;;;20.80;99.90;;;;;;5022957;28;20474;-69
2022/05/15 07:42:19;;;;;;;11.45;6.30;;;20.80;99.90;;;;;;5021843;28;20056;-69
2022/05/15 07:44:47;;;;;;;8.68;5.30;;;20.80;99.90;;;;;;5012557;28;20095;-69
2022/05/15 07:47:14;;;;;;;9.75;5.63;;;20.80;99.90;;;;;;5027894;28;20052;-69
2022/05/15 07:49:42;;;;;;;13.18;5.40;;;20.70;99.90;;;;;;5015665;28;20047;-69
2022/05/15 07:52:10;;;;;;;11.60;5.22;;;20.70;99.90;;;;;;5026357;28;20056;-69
2022/05/15 07:54:37;;;;;;;7.88;4.13;;;20.70;99.90;;;;;;5030932;28;20026;-69
2022/05/15 07:57:06;;;;;;;15.23;6.10;;;20.80;99.90;;;;;;5029288;28;20120;-69
2022/05/15 07:59:34;;;;;;;11.88;4.75;;;20.70;99.90;;;;;;5012567;28;20486;-69
2022/05/15 08:02:06;;;;;;;11.93;5.72;;;20.70;99.90;;;;;;5022267;28;20033;-69
2022/05/15 08:08:00;;;;;;;7.55;4.57;;;20.70;99.90;;;;;;5026012;28;20561;-70
2022/05/15 08:10:21;;;;;;;9.32;5.97;;;20.70;99.90;;;;;;5035667;28;20116;-69
2022/05/15 08:12:48;;;;;;;12.23;6.72;;;20.60;99.90;;;;;;5031000;28;20029;-69
2022/05/15 08:15:15;;;;;;;11.70;6.18;;;20.60;99.90;;;;;;5024535;28;20037;-69
2022/05/15 08:17:43;;;;;;;6.25;4.78;;;20.60;99.90;;;;;;5028288;28;20060;-69
2022/05/15 08:25:44;;;;;;;10.77;4.35;;;20.60;99.90;;;;;;5022662;28;20067;-70
2022/05/15 08:28:11;;;;;;;12.50;4.78;;;20.60;99.90;;;;;;5030675;28;20026;-70
2022/05/15 08:30:39;;;;;;;13.88;4.45;;;20.60;99.90;;;;;;5029119;28;20520;-69
2022/05/15 08:33:09;;;;;;;11.10;4.93;;;20.60;99.90;;;;;;5023503;28;20030;-68
2022/05/15 08:35:36;;;;;;;8.60;3.88;;;20.60;99.90;;;;;;5016014;28;20445;-68
2022/05/15 08:38:05;;;;;;;10.55;4.50;;;20.60;99.90;;;;;;5022136;28;20104;-70
2022/05/15 08:40:46;;;;;;;8.73;4.90;;;20.60;99.90;;;;;;5036139;28;20485;-70
2022/05/15 08:43:13;;;;;;;8.88;4.35;;;20.60;99.90;;;;;;5032622;28;20057;-70
2022/05/15 08:45:49;;;;;;;10.30;4.78;;;20.60;99.90;;;;;;5019949;28;20029;-70
2022/05/15 08:48:17;;;;;;;12.32;4.68;;;20.60;99.90;;;;;;5029478;28;20038;-70
2022/05/15 08:50:52;;;;;;;7.80;3.65;;;20.60;99.90;;;;;;5019196;28;20032;-70
2022/05/15 08:53:28;;;;;;;8.27;4.10;;;20.70;99.90;;;;;;5021419;28;20497;-71
2022/05/15 08:55:59;;;;;;;10.02;3.90;;;20.70;99.90;;;;;;5022003;28;20037;-71
2022/05/15 08:58:30;;;;;;;7.47;3.92;;;20.70;99.90;;;;;;5027207;28;20392;-70
2022/05/15 09:00:57;;;;;;;11.38;4.35;;;20.70;99.90;;;;;;5016732;28;20029;-71
2022/05/15 09:03:28;;;;;;;11.50;4.45;;;20.60;99.90;;;;;;5026205;28;20057;-70
2022/05/15 09:06:13;;;;;;;8.48;4.30;;;20.70;99.90;;;;;;5020142;28;20021;-70
2022/05/15 09:08:58;;;;;;;13.38;4.57;;;20.70;99.90;;;;;;5022346;28;20486;-70
2022/05/15 09:11:47;;;;;;;11.60;5.85;;;20.70;99.90;;;;;;5023881;28;20917;-70
2022/05/15 09:14:59;;;;;;;10.18;4.97;;;20.70;99.90;;;;;;5019579;28;20433;-70
2022/05/15 09:17:33;;;;;;;13.23;5.65;;;20.70;99.90;;;;;;5013316;28;20038;-69
2022/05/15 09:20:07;;;;;;;14.30;5.65;;;20.70;99.90;;;;;;5024084;28;20141;-70
2022/05/15 09:22:48;;;;;;;12.27;5.50;;;20.70;99.90;;;;;;5021161;28;20085;-70
2022/05/15 09:25:19;;;;;;;13.45;6.30;;;20.70;99.90;;;;;;5030970;28;20025;-70
2022/05/15 09:28:06;;;;;;;11.70;6.55;;;20.70;99.90;;;;;;5021514;28;20025;-70
2022/05/15 09:30:37;;;;;;;11.30;5.65;;;20.60;99.90;;;;;;5016957;28;20026;-70
2022/05/15 09:33:05;;;;;;;12.43;5.88;;;20.60;99.90;;;;;;5027563;28;20040;-69
2022/05/15 09:35:41;;;;;;;9.00;6.05;;;20.60;99.90;;;;;;5028162;28;20030;-69
2022/05/15 09:38:28;;;;;;;12.15;6.15;;;20.50;99.90;;;;;;5017352;28;20030;-70
2022/05/15 09:43:56;;;;;;;18.58;7.20;;;20.50;99.90;;;;;;5025687;28;20044;-70
2022/05/15 09:46:26;;;;;;;18.20;7.72;;;20.40;99.90;;;;;;5026845;28;20037;-70
2022/05/15 09:48:58;;;;;;;11.43;6.93;;;20.40;99.90;;;;;;5024420;28;20382;-70
2022/05/15 09:51:49;;;;;;;13.90;6.85;;;20.30;99.90;;;;;;5024750;28;20201;-70
2022/05/15 09:54:50;;;;;;;9.88;6.38;;;20.30;99.90;;;;;;5016037;28;20564;-70
2022/05/15 09:57:28;;;;;;;10.77;6.55;;;20.20;99.90;;;;;;5020830;28;20029;-70
2022/05/15 10:00:02;;;;;;;15.60;7.35;;;20.20;99.90;;;;;;5031570;28;20168;-70
2022/05/15 10:02:45;;;;;;;19.83;7.72;;;20.20;99.90;;;;;;5032202;28;20053;-70
2022/05/15 10:05:27;;;;;;;15.20;7.22;;;20.20;99.90;;;;;;5015453;28;20030;-70
2022/05/15 10:08:22;;;;;;;17.63;9.18;;;20.20;99.90;;;;;;5021285;28;20061;-69
2022/05/15 10:11:01;;;;;;;13.57;8.25;;;20.30;99.90;;;;;;5016137;28;20018;-70
2022/05/15 10:13:44;;;;;;;14.07;7.40;;;20.30;99.90;;;;;;5018861;28;20022;-70
2022/05/15 10:16:36;;;;;;;14.77;8.38;;;20.30;99.90;;;;;;5023213;28;20079;-70
2022/05/15 10:19:25;;;;;;;15.90;8.10;;;20.30;99.90;;;;;;5025808;28;20025;-70
2022/05/15 10:22:08;;;;;;;18.23;8.93;;;20.30;99.90;;;;;;5021299;28;20429;-69
2022/05/15 10:24:44;;;;;;;13.90;7.35;;;20.30;99.90;;;;;;5013951;28;20105;-70
2022/05/15 10:27:23;;;;;;;12.88;8.05;;;20.30;99.90;;;;;;5013464;28;20054;-70
2022/05/15 10:30:23;;;;;;;12.32;7.60;;;20.30;99.90;;;;;;5019151;28;20049;-70
2022/05/15 10:33:06;;;;;;;13.10;6.95;;;20.30;99.90;;;;;;5018377;28;20512;-70
2022/05/15 10:36:09;;;;;;;14.93;7.35;;;20.20;99.90;;;;;;5030274;28;20029;-70
2022/05/15 10:39:14;;;;;;;15.13;7.03;;;20.20;99.90;;;;;;5017163;28;20077;-70
2022/05/15 10:42:07;;;;;;;13.95;9.13;;;20.20;99.90;;;;;;5026065;28;20033;-70
2022/05/15 10:44:41;;;;;;;19.13;9.52;;;20.10;99.90;;;;;;5023644;28;20751;-70
2022/05/15 10:47:34;;;;;;;14.95;8.75;;;20.10;99.90;;;;;;5023458;28;20048;-70
2022/05/15 10:50:09;;;;;;;17.42;7.80;;;20.10;99.90;;;;;;5017431;28;20026;-69
2022/05/15 10:52:42;;;;;;;13.70;8.52;;;20.00;99.90;;;;;;5022600;28;20108;-70
2022/05/15 10:58:22;;;;;;;17.73;9.02;;;19.90;99.90;;;;;;5017464;28;20433;-70
2022/05/15 11:00:58;;;;;;;18.63;9.90;;;19.80;99.90;;;;;;5020448;28;20474;-70
2022/05/15 11:03:40;;;;;;;16.98;10.10;;;19.90;99.90;;;;;;5023023;28;20462;-70
2022/05/15 11:06:29;;;;;;;18.83;10.00;;;19.80;99.90;;;;;;5018138;28;20022;-70
2022/05/15 11:09:29;;;;;;;16.15;9.77;;;19.90;99.90;;;;;;5021477;28;20402;-70
2022/05/15 11:12:17;;;;;;;14.93;9.93;;;19.90;99.90;;;;;;5015542;28;20022;-70
2022/05/15 11:15:07;;;;;;;15.27;10.15;;;19.90;99.90;;;;;;5013829;28;20110;-70
2022/05/15 11:17:53;;;;;;;16.10;8.95;;;19.90;99.90;;;;;;5027820;28;20038;-70
2022/05/15 11:20:48;;;;;;;19.15;9.43;;;19.90;99.90;;;;;;5027049;28;20562;-70
2022/05/15 11:23:19;;;;;;;16.80;9.15;;;19.90;99.90;;;;;;5013144;28;20552;-70
2022/05/15 11:26:05;;;;;;;19.15;11.43;;;19.90;99.90;;;;;;5015943;28;20356;-70
2022/05/15 11:28:48;;;;;;;14.63;11.45;;;19.80;99.90;;;;;;5021144;28;20108;-71
2022/05/15 11:31:42;;;;;;;16.35;9.82;;;19.90;99.90;;;;;;5015787;28;20053;-71
2022/05/15 11:34:10;;;;;;;16.15;10.10;;;19.80;99.90;;;;;;5013170;28;20030;-71
2022/05/15 11:36:46;;;;;;;14.77;9.15;;;19.70;99.90;;;;;;5011974;28;20068;-71
2022/05/15 11:39:17;;;;;;;13.82;8.85;;;19.70;99.90;;;;;;5019201;28;20064;-71
2022/05/15 11:41:44;;;;;;;18.65;8.95;;;19.60;99.90;;;;;;5020575;28;20037;-71
2022/05/15 11:44:18;;;;;;;11.93;8.25;;;19.60;99.90;;;;;;5022981;28;20037;-72
2022/05/15 11:46:49;;;;;;;11.57;7.38;;;19.40;99.90;;;;;;5023967;28;20057;-71
2022/05/15 11:49:25;;;;;;;17.77;7.10;;;19.50;99.90;;;;;;5029035;28;20437;-71
2022/05/15 11:52:11;;;;;;;13.13;7.18;;;19.40;99.90;;;;;;5022243;28;20049;-71
2022/05/15 11:54:45;;;;;;;10.63;7.13;;;19.40;99.90;;;;;;5026682;28;20041;-71
2022/05/15 11:57:42;;;;;;;11.38;7.38;;;19.40;99.90;;;;;;5023440;28;20018;-71
2022/05/15 12:00:22;;;;;;;15.70;7.78;;;19.40;99.90;;;;;;5012580;28;20030;-71
2022/05/15 12:02:56;;;;;;;9.48;5.93;;;19.50;99.90;;;;;;5023689;28;20065;-70
2022/05/15 12:05:23;;;;;;;10.43;6.30;;;19.40;99.90;;;;;;5015541;28;20026;-71
2022/05/15 12:07:55;;;;;;;7.38;4.40;;;19.30;99.90;;;;;;5025691;28;20025;-70
2022/05/15 12:10:35;;;;;;;6.28;3.25;;;19.20;99.90;;;;;;5036157;28;20026;-70
2022/05/15 12:13:30;;;;;;;6.35;3.33;;;19.20;99.90;;;;;;5019584;28;20029;-70
2022/05/15 12:16:15;;;;;;;4.25;2.95;;;19.10;99.90;;;;;;5023408;28;20022;-70
2022/05/15 12:18:44;;;;;;;10.70;4.28;;;19.10;99.90;;;;;;5024798;28;20088;-70
2022/05/15 12:21:17;;;;;;;4.85;2.90;;;19.10;99.90;;;;;;5028615;28;20546;-71
2022/05/15 12:27:07;;;;;;;9.52;3.03;;;19.10;99.90;;;;;;5038306;28;20051;-71
2022/05/15 12:29:59;;;;;;;5.68;3.17;;;19.20;99.90;;;;;;5021428;28;20056;-71
2022/05/15 12:32:46;;;;;;;7.28;4.50;;;19.20;99.90;;;;;;5018520;28;20026;-71
2022/05/15 12:35:24;;;;;;;7.05;4.15;;;19.10;99.90;;;;;;5031927;28;20038;-71
2022/05/15 12:37:56;;;;;;;7.40;4.43;;;19.10;99.90;;;;;;5036065;28;20394;-71
2022/05/15 12:40:33;;;;;;;8.00;4.15;;;19.10;99.90;;;;;;5018543;28;20397;-71
2022/05/15 12:43:02;;;;;;;8.30;3.58;;;19.00;99.90;;;;;;5018794;28;20050;-71
2022/05/15 12:45:33;;;;;;;5.95;2.85;;;19.00;99.90;;;;;;5018497;28;20036;-71
2022/05/15 12:48:06;;;;;;;4.93;2.45;;;18.90;99.90;;;;;;5020605;28;20025;-71
2022/05/15 12:50:34;;;;;;;5.97;3.33;;;18.80;99.90;;;;;;5026145;28;20018;-70
2022/05/15 12:53:03;;;;;;;6.07;2.90;;;18.70;99.90;;;;;;5034429;28;20111;-71
2022/05/15 12:55:34;;;;;;;4.25;2.38;;;18.70;99.90;;;;;;5027188;28;20037;-71
2022/05/15 12:58:07;;;;;;;3.95;2.63;;;18.80;99.90;;;;;;5020887;28;20022;-71
2022/05/15 13:00:42;;;;;;;4.00;2.10;;;18.80;99.90;;;;;;5030490;28;20109;-70
2022/05/15 13:03:13;;;;;;;6.47;2.28;;;18.70;99.90;;;;;;5037549;28;20674;-71
2022/05/15 13:05:54;;;;;;;5.13;2.40;;;18.70;99.90;;;;;;5025414;28;20029;-71
2022/05/15 13:08:21;;;;;;;4.43;1.98;;;18.70;99.90;;;;;;5018475;28;20054;-71
2022/05/15 13:10:56;;;;;;;3.80;2.58;;;18.70;99.90;;;;;;5021417;28;20033;-70
2022/05/15 13:13:34;;;;;;;6.57;3.75;;;18.70;99.90;;;;;;5025441;28;20088;-70
2022/05/15 13:16:03;;;;;;;4.22;2.92;;;18.70;99.90;;;;;;5030995;28;20043;-71
2022/05/15 13:18:35;;;;;;;2.70;1.73;;;18.60;99.90;;;;;;5027702;28;20029;-70
2022/05/15 13:21:08;;;;;;;4.75;2.30;;;18.60;99.90;;;;;;5030929;28;20021;-71
2022/05/15 13:23:44;;;;;;;2.53;1.20;;;18.50;99.90;;;;;;5024461;28;20397;-71
2022/05/15 13:26:19;;;;;;;2.97;1.33;;;18.50;99.90;;;;;;5016539;28;20050;-71
2022/05/15 13:28:47;;;;;;;2.15;1.20;;;18.60;99.90;;;;;;5026503;28;20025;-70
2022/05/15 13:31:15;;;;;;;2.65;1.25;;;18.50;99.90;;;;;;5024989;28;20142;-70